sensor_id;sensor_type;location;lat;lon;timestamp;P1;durP1;ratioP1;P2;durP2;ratioP2
49738;SDS011;53662;50.114;8.626;2022-09-28T00:00:36;2.08;;;1.10;;
49738;SDS011;53662;50.114;8.626;2022-09-28T00:03:05;6.03;;;1.70;;
49738;SDS011;53662;50.114;8.626;2022-09-28T00:05:31;3.60;;;1.35;;
49738;SDS011;53662;50.114;8.626;2022-09-28T00:07:57;1.77;;;1.50;;
49738;SDS011;53662;50.114;8.626;2022-09-28T00:10:23;3.78;;;1.60;;
49738;SDS011;53662;50.114;8.626;2022-09-28T00:12:49;7.07;;;1.67;;
49738;SDS011;53662;50.114;8.626;2022-09-28T00:15:15;4.07;;;1.40;;
49738;SDS011;53662;50.114;8.626;2022-09-28T00:17:41;4.80;;;1.33;;
49738;SDS011;53662;50.114;8.626;2022-09-28T00:20:10;5.28;;;1.90;;
49738;SDS011;53662;50.114;8.626;2022-09-28T00:22:37;4.05;;;1.67;;
49738;SDS011;53662;50.114;8.626;2022-09-28T00:25:03;3.25;;;1.65;;
49738;SDS011;53662;50.114;8.626;2022-09-28T00:27:29;4.35;;;1.58;;
49738;SDS011;53662;50.114;8.626;2022-09-28T00:29:55;1.92;;;1.58;;
49738;SDS011;53662;50.114;8.626;2022-09-28T00:32:22;3.60;;;1.58;;
49738;SDS011;53662;50.114;8.626;2022-09-28T00:34:49;5.03;;;1.58;;
49738;SDS011;53662;50.114;8.626;2022-09-28T00:37:15;5.10;;;2.00;;
49738;SDS011;53662;50.114;8.626;2022-09-28T00:39:43;2.83;;;1.60;;
49738;SDS011;53662;50.114;8.626;2022-09-28T00:42:10;2.88;;;1.70;;
49738;SDS011;53662;50.114;8.626;2022-09-28T00:50:00;2.00;;;1.80;;
49738;SDS011;53662;50.114;8.626;2022-09-28T00:54:53;4.35;;;2.28;;
49738;SDS011;53662;50.114;8.626;2022-09-28T00:57:20;4.45;;;2.10;;
49738;SDS011;53662;50.114;8.626;2022-09-28T00:59:47;2.70;;;2.10;;
49738;SDS011;53662;50.114;8.626;2022-09-28T01:02:13;3.63;;;1.77;;
49738;SDS011;53662;50.114;8.626;2022-09-28T01:04:39;3.40;;;1.88;;
49738;SDS011;53662;50.114;8.626;2022-09-28T01:07:05;2.45;;;1.40;;
49738;SDS011;53662;50.114;8.626;2022-09-28T01:09:32;3.42;;;1.85;;
49738;SDS011;53662;50.114;8.626;2022-09-28T01:12:00;2.30;;;2.10;;
49738;SDS011;53662;50.114;8.626;2022-09-28T01:14:26;2.03;;;1.92;;
49738;SDS011;53662;50.114;8.626;2022-09-28T01:17:11;2.28;;;1.80;;
49738;SDS011;53662;50.114;8.626;2022-09-28T01:27:18;2.15;;;2.05;;
49738;SDS011;53662;50.114;8.626;2022-09-28T01:34:51;2.05;;;1.95;;
49738;SDS011;53662;50.114;8.626;2022-09-28T01:37:20;2.40;;;2.10;;
49738;SDS011;53662;50.114;8.626;2022-09-28T01:39:47;2.45;;;2.35;;
49738;SDS011;53662;50.114;8.626;2022-09-28T01:42:25;2.78;;;1.92;;
49738;SDS011;53662;50.114;8.626;2022-09-28T01:44:53;3.83;;;2.83;;
49738;SDS011;53662;50.114;8.626;2022-09-28T01:47:21;2.38;;;2.17;;
49738;SDS011;53662;50.114;8.626;2022-09-28T01:49:50;2.45;;;2.13;;
49738;SDS011;53662;50.114;8.626;2022-09-28T01:52:20;2.70;;;2.35;;
49738;SDS011;53662;50.114;8.626;2022-09-28T01:54:48;2.17;;;2.05;;
49738;SDS011;53662;50.114;8.626;2022-09-28T01:57:17;4.80;;;2.35;;
49738;SDS011;53662;50.114;8.626;2022-09-28T01:59:51;5.57;;;2.30;;
49738;SDS011;53662;50.114;8.626;2022-09-28T02:02:21;2.53;;;2.33;;
49738;SDS011;53662;50.114;8.626;2022-09-28T02:04:53;2.58;;;2.38;;
49738;SDS011;53662;50.114;8.626;2022-09-28T02:07:25;3.60;;;2.40;;
49738;SDS011;53662;50.114;8.626;2022-09-28T02:09:55;2.60;;;2.13;;
49738;SDS011;53662;50.114;8.626;2022-09-28T02:12:24;2.50;;;2.30;;
49738;SDS011;53662;50.114;8.626;2022-09-28T02:14:51;5.90;;;2.58;;
49738;SDS011;53662;50.114;8.626;2022-09-28T02:17:20;4.38;;;2.72;;
49738;SDS011;53662;50.114;8.626;2022-09-28T02:19:45;5.90;;;2.58;;
49738;SDS011;53662;50.114;8.626;2022-09-28T02:22:25;4.03;;;2.70;;
49738;SDS011;53662;50.114;8.626;2022-09-28T02:27:28;1.38;;;0.70;;
49738;SDS011;53662;50.114;8.626;2022-09-28T02:29:55;1.08;;;0.28;;
49738;SDS011;53662;50.114;8.626;2022-09-28T02:32:21;1.85;;;0.50;;
49738;SDS011;53662;50.114;8.626;2022-09-28T02:34:48;0.93;;;0.65;;
49738;SDS011;53662;50.114;8.626;2022-09-28T02:37:14;1.35;;;0.88;;
49738;SDS011;53662;50.114;8.626;2022-09-28T02:39:40;3.22;;;0.93;;
49738;SDS011;53662;50.114;8.626;2022-09-28T02:42:16;1.45;;;1.25;;
49738;SDS011;53662;50.114;8.626;2022-09-28T02:49:45;0.65;;;0.60;;
49738;SDS011;53662;50.114;8.626;2022-09-28T02:57:30;1.52;;;0.30;;
49738;SDS011;53662;50.114;8.626;2022-09-28T03:00:06;0.38;;;0.38;;
49738;SDS011;53662;50.114;8.626;2022-09-28T03:02:36;0.88;;;0.43;;
49738;SDS011;53662;50.114;8.626;2022-09-28T03:05:21;0.45;;;0.40;;
49738;SDS011;53662;50.114;8.626;2022-09-28T03:08:05;0.32;;;0.22;;
49738;SDS011;53662;50.114;8.626;2022-09-28T03:12:57;0.75;;;0.40;;
49738;SDS011;53662;50.114;8.626;2022-09-28T03:15:25;2.22;;;0.50;;
49738;SDS011;53662;50.114;8.626;2022-09-28T03:17:51;0.52;;;0.30;;
49738;SDS011;53662;50.114;8.626;2022-09-28T03:20:18;0.65;;;0.30;;
49738;SDS011;53662;50.114;8.626;2022-09-28T03:22:44;1.42;;;0.52;;
49738;SDS011;53662;50.114;8.626;2022-09-28T03:25:10;1.20;;;0.30;;
49738;SDS011;53662;50.114;8.626;2022-09-28T03:27:36;0.93;;;0.40;;
49738;SDS011;53662;50.114;8.626;2022-09-28T03:30:02;1.00;;;0.50;;
49738;SDS011;53662;50.114;8.626;2022-09-28T03:32:29;1.00;;;0.50;;
49738;SDS011;53662;50.114;8.626;2022-09-28T03:34:55;0.38;;;0.38;;
49738;SDS011;53662;50.114;8.626;2022-09-28T03:37:21;0.40;;;0.40;;
49738;SDS011;53662;50.114;8.626;2022-09-28T03:39:47;1.25;;;0.70;;
49738;SDS011;53662;50.114;8.626;2022-09-28T03:42:13;1.15;;;0.40;;
49738;SDS011;53662;50.114;8.626;2022-09-28T03:44:39;0.68;;;0.38;;
49738;SDS011;53662;50.114;8.626;2022-09-28T03:47:06;1.38;;;0.43;;
49738;SDS011;53662;50.114;8.626;2022-09-28T03:49:32;1.15;;;0.60;;
49738;SDS011;53662;50.114;8.626;2022-09-28T03:51:58;0.50;;;0.40;;
49738;SDS011;53662;50.114;8.626;2022-09-28T03:54:24;0.73;;;0.73;;
49738;SDS011;53662;50.114;8.626;2022-09-28T03:56:50;3.55;;;0.73;;
49738;SDS011;53662;50.114;8.626;2022-09-28T03:59:16;4.78;;;0.70;;
49738;SDS011;53662;50.114;8.626;2022-09-28T04:01:42;2.38;;;0.85;;
49738;SDS011;53662;50.114;8.626;2022-09-28T04:04:10;0.50;;;0.50;;
49738;SDS011;53662;50.114;8.626;2022-09-28T04:06:36;0.60;;;0.60;;
49738;SDS011;53662;50.114;8.626;2022-09-28T04:09:02;3.20;;;0.80;;
49738;SDS011;53662;50.114;8.626;2022-09-28T04:11:28;0.80;;;0.50;;
49738;SDS011;53662;50.114;8.626;2022-09-28T04:13:54;2.85;;;0.90;;
49738;SDS011;53662;50.114;8.626;2022-09-28T04:16:20;1.20;;;0.57;;
49738;SDS011;53662;50.114;8.626;2022-09-28T04:18:46;0.77;;;0.77;;
49738;SDS011;53662;50.114;8.626;2022-09-28T04:21:13;1.00;;;0.90;;
49738;SDS011;53662;50.114;8.626;2022-09-28T04:23:39;0.98;;;0.90;;
49738;SDS011;53662;50.114;8.626;2022-09-28T04:26:06;1.65;;;0.90;;
49738;SDS011;53662;50.114;8.626;2022-09-28T04:28:33;2.10;;;0.80;;
49738;SDS011;53662;50.114;8.626;2022-09-28T04:31:21;3.17;;;0.80;;
49738;SDS011;53662;50.114;8.626;2022-09-28T04:33:48;1.05;;;0.80;;
49738;SDS011;53662;50.114;8.626;2022-09-28T04:36:14;0.93;;;0.82;;
49738;SDS011;53662;50.114;8.626;2022-09-28T04:38:41;1.27;;;0.95;;
49738;SDS011;53662;50.114;8.626;2022-09-28T04:41:07;2.08;;;1.00;;
49738;SDS011;53662;50.114;8.626;2022-09-28T04:43:34;3.80;;;0.90;;
49738;SDS011;53662;50.114;8.626;2022-09-28T04:46:00;0.90;;;0.90;;
49738;SDS011;53662;50.114;8.626;2022-09-28T04:48:27;1.10;;;0.70;;
49738;SDS011;53662;50.114;8.626;2022-09-28T04:50:53;0.82;;;0.82;;
49738;SDS011;53662;50.114;8.626;2022-09-28T04:53:20;1.65;;;0.90;;
49738;SDS011;53662;50.114;8.626;2022-09-28T04:55:59;3.47;;;0.93;;
49738;SDS011;53662;50.114;8.626;2022-09-28T04:58:25;1.40;;;0.95;;
49738;SDS011;53662;50.114;8.626;2022-09-28T05:00:52;3.20;;;0.98;;
49738;SDS011;53662;50.114;8.626;2022-09-28T05:03:18;3.50;;;1.02;;
49738;SDS011;53662;50.114;8.626;2022-09-28T05:05:45;1.00;;;0.90;;
49738;SDS011;53662;50.114;8.626;2022-09-28T05:08:11;3.55;;;1.30;;
49738;SDS011;53662;50.114;8.626;2022-09-28T05:10:37;1.45;;;1.00;;
49738;SDS011;53662;50.114;8.626;2022-09-28T05:13:07;3.92;;;1.00;;
49738;SDS011;53662;50.114;8.626;2022-09-28T05:15:33;1.65;;;1.02;;
49738;SDS011;53662;50.114;8.626;2022-09-28T05:17:59;1.20;;;1.10;;
49738;SDS011;53662;50.114;8.626;2022-09-28T05:20:26;1.23;;;1.10;;
49738;SDS011;53662;50.114;8.626;2022-09-28T05:22:51;1.15;;;1.10;;
49738;SDS011;53662;50.114;8.626;2022-09-28T05:25:17;1.38;;;1.08;;
49738;SDS011;53662;50.114;8.626;2022-09-28T05:27:43;1.10;;;1.08;;
49738;SDS011;53662;50.114;8.626;2022-09-28T05:30:10;2.22;;;1.50;;
49738;SDS011;53662;50.114;8.626;2022-09-28T05:32:42;1.88;;;1.15;;
49738;SDS011;53662;50.114;8.626;2022-09-28T05:35:09;6.15;;;1.30;;
49738;SDS011;53662;50.114;8.626;2022-09-28T05:37:35;2.15;;;0.95;;
49738;SDS011;53662;50.114;8.626;2022-09-28T05:40:01;1.15;;;1.02;;
49738;SDS011;53662;50.114;8.626;2022-09-28T05:42:28;3.13;;;0.90;;
49738;SDS011;53662;50.114;8.626;2022-09-28T05:44:54;3.47;;;1.20;;
49738;SDS011;53662;50.114;8.626;2022-09-28T05:47:22;3.03;;;1.42;;
49738;SDS011;53662;50.114;8.626;2022-09-28T05:49:49;1.17;;;0.98;;
49738;SDS011;53662;50.114;8.626;2022-09-28T05:52:15;2.00;;;1.13;;
49738;SDS011;53662;50.114;8.626;2022-09-28T05:54:41;3.00;;;1.40;;
49738;SDS011;53662;50.114;8.626;2022-09-28T05:57:07;2.97;;;1.15;;
49738;SDS011;53662;50.114;8.626;2022-09-28T05:59:33;3.58;;;1.20;;
49738;SDS011;53662;50.114;8.626;2022-09-28T06:02:00;3.65;;;0.77;;
49738;SDS011;53662;50.114;8.626;2022-09-28T06:04:25;5.25;;;1.38;;
49738;SDS011;53662;50.114;8.626;2022-09-28T06:06:52;2.50;;;1.00;;
49738;SDS011;53662;50.114;8.626;2022-09-28T06:09:19;5.18;;;2.50;;
49738;SDS011;53662;50.114;8.626;2022-09-28T06:11:45;10.45;;;1.83;;
49738;SDS011;53662;50.114;8.626;2022-09-28T06:14:12;7.63;;;1.30;;
49738;SDS011;53662;50.114;8.626;2022-09-28T06:16:38;7.53;;;1.25;;
49738;SDS011;53662;50.114;8.626;2022-09-28T06:19:05;2.10;;;1.35;;
49738;SDS011;53662;50.114;8.626;2022-09-28T06:21:31;9.07;;;1.73;;
49738;SDS011;53662;50.114;8.626;2022-09-28T06:23:57;3.88;;;1.33;;
49738;SDS011;53662;50.114;8.626;2022-09-28T06:26:23;4.97;;;1.45;;
49738;SDS011;53662;50.114;8.626;2022-09-28T06:28:49;1.10;;;1.00;;
49738;SDS011;53662;50.114;8.626;2022-09-28T06:31:15;1.90;;;1.33;;
49738;SDS011;53662;50.114;8.626;2022-09-28T06:34:01;3.92;;;1.25;;
49738;SDS011;53662;50.114;8.626;2022-09-28T06:36:28;1.95;;;1.20;;
49738;SDS011;53662;50.114;8.626;2022-09-28T06:38:55;2.80;;;0.95;;
49738;SDS011;53662;50.114;8.626;2022-09-28T06:41:22;7.45;;;0.90;;
49738;SDS011;53662;50.114;8.626;2022-09-28T06:43:48;4.20;;;1.00;;
49738;SDS011;53662;50.114;8.626;2022-09-28T06:46:14;3.92;;;1.52;;
49738;SDS011;53662;50.114;8.626;2022-09-28T06:48:40;4.32;;;0.88;;
49738;SDS011;53662;50.114;8.626;2022-09-28T06:51:07;1.40;;;0.68;;
49738;SDS011;53662;50.114;8.626;2022-09-28T06:53:33;1.05;;;0.65;;
49738;SDS011;53662;50.114;8.626;2022-09-28T06:56:00;6.93;;;1.13;;
49738;SDS011;53662;50.114;8.626;2022-09-28T06:58:26;1.45;;;0.70;;
49738;SDS011;53662;50.114;8.626;2022-09-28T07:00:54;4.75;;;1.08;;
49738;SDS011;53662;50.114;8.626;2022-09-28T07:03:23;3.92;;;0.70;;
49738;SDS011;53662;50.114;8.626;2022-09-28T07:05:50;4.75;;;0.70;;
49738;SDS011;53662;50.114;8.626;2022-09-28T07:08:18;0.43;;;0.43;;
49738;SDS011;53662;50.114;8.626;2022-09-28T07:10:46;0.50;;;0.50;;
49738;SDS011;53662;50.114;8.626;2022-09-28T07:13:13;1.80;;;0.57;;
49738;SDS011;53662;50.114;8.626;2022-09-28T07:15:39;1.50;;;0.68;;
49738;SDS011;53662;50.114;8.626;2022-09-28T07:18:05;3.88;;;0.50;;
49738;SDS011;53662;50.114;8.626;2022-09-28T07:20:32;3.38;;;0.60;;
49738;SDS011;53662;50.114;8.626;2022-09-28T07:22:59;7.00;;;0.98;;
49738;SDS011;53662;50.114;8.626;2022-09-28T07:25:26;3.47;;;0.88;;
49738;SDS011;53662;50.114;8.626;2022-09-28T07:27:57;2.15;;;0.82;;
49738;SDS011;53662;50.114;8.626;2022-09-28T07:30:27;2.05;;;0.98;;
49738;SDS011;53662;50.114;8.626;2022-09-28T07:32:53;3.70;;;0.85;;
49738;SDS011;53662;50.114;8.626;2022-09-28T07:35:20;1.98;;;0.60;;
49738;SDS011;53662;50.114;8.626;2022-09-28T07:37:46;1.70;;;0.80;;
49738;SDS011;53662;50.114;8.626;2022-09-28T08:39:45;1.08;;;0.50;;
49738;SDS011;53662;50.114;8.626;2022-09-28T08:42:34;1.88;;;0.80;;
49738;SDS011;53662;50.114;8.626;2022-09-28T08:45:09;2.55;;;0.52;;
49738;SDS011;53662;50.114;8.626;2022-09-28T08:50:24;0.85;;;0.70;;
49738;SDS011;53662;50.114;8.626;2022-09-28T08:52:52;3.10;;;0.47;;
49738;SDS011;53662;50.114;8.626;2022-09-28T08:55:28;1.23;;;0.50;;
49738;SDS011;53662;50.114;8.626;2022-09-28T08:58:00;8.60;;;0.50;;
49738;SDS011;53662;50.114;8.626;2022-09-28T09:03:12;3.28;;;0.80;;
49738;SDS011;53662;50.114;8.626;2022-09-28T09:18:58;2.83;;;0.55;;
49738;SDS011;53662;50.114;8.626;2022-09-28T09:24:00;0.63;;;0.38;;
49738;SDS011;53662;50.114;8.626;2022-09-28T09:26:34;8.75;;;0.70;;
49738;SDS011;53662;50.114;8.626;2022-09-28T09:29:16;3.08;;;0.75;;
49738;SDS011;53662;50.114;8.626;2022-09-28T09:34:40;3.03;;;0.50;;
49738;SDS011;53662;50.114;8.626;2022-09-28T09:39:53;2.97;;;0.50;;
49738;SDS011;53662;50.114;8.626;2022-09-28T09:47:49;1.88;;;0.20;;
49738;SDS011;53662;50.114;8.626;2022-09-28T09:52:54;2.38;;;0.65;;
49738;SDS011;53662;50.114;8.626;2022-09-28T09:55:44;4.40;;;0.77;;
49738;SDS011;53662;50.114;8.626;2022-09-28T09:58:17;2.92;;;0.47;;
49738;SDS011;53662;50.114;8.626;2022-09-28T10:00:46;0.73;;;0.65;;
49738;SDS011;53662;50.114;8.626;2022-09-28T10:03:23;1.88;;;0.60;;
49738;SDS011;53662;50.114;8.626;2022-09-28T10:05:59;1.02;;;0.50;;
49738;SDS011;53662;50.114;8.626;2022-09-28T10:08:26;2.83;;;0.60;;
49738;SDS011;53662;50.114;8.626;2022-09-28T10:10:54;3.28;;;0.63;;
49738;SDS011;53662;50.114;8.626;2022-09-28T10:13:21;1.23;;;0.60;;
49738;SDS011;53662;50.114;8.626;2022-09-28T10:15:47;1.15;;;0.55;;
49738;SDS011;53662;50.114;8.626;2022-09-28T10:18:15;1.13;;;0.32;;
49738;SDS011;53662;50.114;8.626;2022-09-28T10:20:43;1.30;;;0.65;;
49738;SDS011;53662;50.114;8.626;2022-09-28T10:23:12;0.47;;;0.40;;
49738;SDS011;53662;50.114;8.626;2022-09-28T10:25:40;1.20;;;0.60;;
49738;SDS011;53662;50.114;8.626;2022-09-28T10:28:09;0.52;;;0.30;;
49738;SDS011;53662;50.114;8.626;2022-09-28T10:30:37;1.40;;;0.60;;
49738;SDS011;53662;50.114;8.626;2022-09-28T10:33:26;0.50;;;0.40;;
49738;SDS011;53662;50.114;8.626;2022-09-28T10:35:52;4.32;;;0.47;;
49738;SDS011;53662;50.114;8.626;2022-09-28T10:38:18;0.28;;;0.28;;
49738;SDS011;53662;50.114;8.626;2022-09-28T10:40:48;2.20;;;0.50;;
49738;SDS011;53662;50.114;8.626;2022-09-28T10:43:16;2.88;;;0.47;;
49738;SDS011;53662;50.114;8.626;2022-09-28T10:45:43;0.55;;;0.55;;
49738;SDS011;53662;50.114;8.626;2022-09-28T10:48:21;0.77;;;0.43;;
49738;SDS011;53662;50.114;8.626;2022-09-28T10:50:57;1.75;;;0.60;;
49738;SDS011;53662;50.114;8.626;2022-09-28T10:53:24;1.13;;;0.60;;
49738;SDS011;53662;50.114;8.626;2022-09-28T10:55:58;4.78;;;0.80;;
49738;SDS011;53662;50.114;8.626;2022-09-28T10:58:25;3.15;;;0.50;;
49738;SDS011;53662;50.114;8.626;2022-09-28T11:00:52;0.28;;;0.28;;
49738;SDS011;53662;50.114;8.626;2022-09-28T11:03:24;1.50;;;0.55;;
49738;SDS011;53662;50.114;8.626;2022-09-28T11:05:55;1.67;;;0.63;;
49738;SDS011;53662;50.114;8.626;2022-09-28T11:08:24;1.02;;;0.45;;
49738;SDS011;53662;50.114;8.626;2022-09-28T11:11:01;1.30;;;0.38;;
49738;SDS011;53662;50.114;8.626;2022-09-28T11:13:27;0.70;;;0.57;;
49738;SDS011;53662;50.114;8.626;2022-09-28T11:15:54;1.65;;;0.45;;
49738;SDS011;53662;50.114;8.626;2022-09-28T11:18:27;0.75;;;0.40;;
49738;SDS011;53662;50.114;8.626;2022-09-28T11:21:08;2.45;;;0.40;;
49738;SDS011;53662;50.114;8.626;2022-09-28T11:23:34;0.40;;;0.40;;
49738;SDS011;53662;50.114;8.626;2022-09-28T11:26:02;1.77;;;0.60;;
49738;SDS011;53662;50.114;8.626;2022-09-28T11:28:30;0.63;;;0.63;;
49738;SDS011;53662;50.114;8.626;2022-09-28T11:30:57;0.40;;;0.40;;
49738;SDS011;53662;50.114;8.626;2022-09-28T11:33:40;1.38;;;0.40;;
49738;SDS011;53662;50.114;8.626;2022-09-28T11:46:43;0.63;;;0.50;;
49738;SDS011;53662;50.114;8.626;2022-09-28T11:54:14;1.75;;;0.40;;
49738;SDS011;53662;50.114;8.626;2022-09-28T11:56:46;4.13;;;0.70;;
49738;SDS011;53662;50.114;8.626;2022-09-28T11:59:15;0.50;;;0.50;;
49738;SDS011;53662;50.114;8.626;2022-09-28T12:01:54;1.45;;;0.63;;
49738;SDS011;53662;50.114;8.626;2022-09-28T12:04:30;0.80;;;0.50;;
49738;SDS011;53662;50.114;8.626;2022-09-28T12:07:00;1.73;;;0.55;;
49738;SDS011;53662;50.114;8.626;2022-09-28T12:09:39;0.52;;;0.50;;
49738;SDS011;53662;50.114;8.626;2022-09-28T12:12:43;3.53;;;0.77;;
49738;SDS011;53662;50.114;8.626;2022-09-28T12:15:00;2.25;;;0.52;;
49738;SDS011;53662;50.114;8.626;2022-09-28T12:17:35;0.80;;;0.80;;
49738;SDS011;53662;50.114;8.626;2022-09-28T12:20:18;0.70;;;0.70;;
49738;SDS011;53662;50.114;8.626;2022-09-28T12:25:15;0.45;;;0.45;;
49738;SDS011;53662;50.114;8.626;2022-09-28T12:27:55;4.45;;;0.90;;
49738;SDS011;53662;50.114;8.626;2022-09-28T12:30:22;1.45;;;0.65;;
49738;SDS011;53662;50.114;8.626;2022-09-28T12:32:57;1.25;;;0.65;;
49738;SDS011;53662;50.114;8.626;2022-09-28T12:35:43;0.77;;;0.65;;
49738;SDS011;53662;50.114;8.626;2022-09-28T12:41:03;1.73;;;0.70;;
49738;SDS011;53662;50.114;8.626;2022-09-28T12:46:11;1.67;;;0.40;;
49738;SDS011;53662;50.114;8.626;2022-09-28T12:51:24;2.50;;;0.40;;
49738;SDS011;53662;50.114;8.626;2022-09-28T12:54:04;1.55;;;0.93;;
49738;SDS011;53662;50.114;8.626;2022-09-28T13:04:23;6.40;;;0.73;;
49738;SDS011;53662;50.114;8.626;2022-09-28T13:17:25;0.70;;;0.60;;
49738;SDS011;53662;50.114;8.626;2022-09-28T13:19:58;3.00;;;0.60;;
49738;SDS011;53662;50.114;8.626;2022-09-28T13:25:05;0.40;;;0.40;;
49738;SDS011;53662;50.114;8.626;2022-09-28T13:27:39;1.17;;;0.55;;
49738;SDS011;53662;50.114;8.626;2022-09-28T13:30:11;4.97;;;0.40;;
49738;SDS011;53662;50.114;8.626;2022-09-28T13:32:38;1.83;;;0.75;;
49738;SDS011;53662;50.114;8.626;2022-09-28T13:35:05;1.55;;;0.47;;
49738;SDS011;53662;50.114;8.626;2022-09-28T13:37:31;2.00;;;0.73;;
49738;SDS011;53662;50.114;8.626;2022-09-28T13:39:58;4.88;;;0.90;;
49738;SDS011;53662;50.114;8.626;2022-09-28T13:55:29;0.40;;;0.40;;
49738;SDS011;53662;50.114;8.626;2022-09-28T14:00:42;1.52;;;0.90;;
49738;SDS011;53662;50.114;8.626;2022-09-28T14:05:46;0.47;;;0.47;;
49738;SDS011;53662;50.114;8.626;2022-09-28T14:08:32;0.38;;;0.22;;
49738;SDS011;53662;50.114;8.626;2022-09-28T14:13:59;3.15;;;0.70;;
49738;SDS011;53662;50.114;8.626;2022-09-28T14:16:26;2.88;;;0.70;;
49738;SDS011;53662;50.114;8.626;2022-09-28T14:18:59;0.40;;;0.40;;
49738;SDS011;53662;50.114;8.626;2022-09-28T14:29:19;2.42;;;0.52;;
49738;SDS011;53662;50.114;8.626;2022-09-28T14:31:52;3.25;;;0.75;;
49738;SDS011;53662;50.114;8.626;2022-09-28T14:34:22;0.40;;;0.40;;
49738;SDS011;53662;50.114;8.626;2022-09-28T14:36:49;0.80;;;0.50;;
49738;SDS011;53662;50.114;8.626;2022-09-28T14:39:35;3.25;;;0.77;;
49738;SDS011;53662;50.114;8.626;2022-09-28T14:42:21;1.70;;;0.40;;
49738;SDS011;53662;50.114;8.626;2022-09-28T14:49:59;1.75;;;0.45;;
49738;SDS011;53662;50.114;8.626;2022-09-28T14:52:36;0.75;;;0.65;;
49738;SDS011;53662;50.114;8.626;2022-09-28T14:55:06;1.13;;;0.50;;
49738;SDS011;53662;50.114;8.626;2022-09-28T14:57:36;0.22;;;0.22;;
49738;SDS011;53662;50.114;8.626;2022-09-28T15:00:15;3.90;;;0.90;;
49738;SDS011;53662;50.114;8.626;2022-09-28T15:02:45;0.75;;;0.75;;
49738;SDS011;53662;50.114;8.626;2022-09-28T15:05:16;2.00;;;0.43;;
49738;SDS011;53662;50.114;8.626;2022-09-28T15:07:44;1.98;;;0.63;;
49738;SDS011;53662;50.114;8.626;2022-09-28T15:12:47;7.05;;;0.70;;
49738;SDS011;53662;50.114;8.626;2022-09-28T15:15:28;3.40;;;0.80;;
49738;SDS011;53662;50.114;8.626;2022-09-28T15:18:01;2.25;;;0.60;;
49738;SDS011;53662;50.114;8.626;2022-09-28T15:20:30;3.03;;;0.70;;
49738;SDS011;53662;50.114;8.626;2022-09-28T15:22:57;0.82;;;0.68;;
49738;SDS011;53662;50.114;8.626;2022-09-28T15:25:25;5.07;;;0.85;;
49738;SDS011;53662;50.114;8.626;2022-09-28T15:28:10;2.15;;;0.70;;
49738;SDS011;53662;50.114;8.626;2022-09-28T15:30:37;2.88;;;0.70;;
49738;SDS011;53662;50.114;8.626;2022-09-28T15:33:03;4.32;;;0.50;;
49738;SDS011;53662;50.114;8.626;2022-09-28T15:35:51;0.77;;;0.70;;
49738;SDS011;53662;50.114;8.626;2022-09-28T15:38:19;1.20;;;0.50;;
49738;SDS011;53662;50.114;8.626;2022-09-28T15:40:45;2.30;;;0.80;;
49738;SDS011;53662;50.114;8.626;2022-09-28T15:43:27;0.85;;;0.68;;
49738;SDS011;53662;50.114;8.626;2022-09-28T15:45:58;1.77;;;0.65;;
49738;SDS011;53662;50.114;8.626;2022-09-28T15:48:30;1.23;;;0.85;;
49738;SDS011;53662;50.114;8.626;2022-09-28T15:51:00;1.20;;;0.90;;
49738;SDS011;53662;50.114;8.626;2022-09-28T15:53:28;0.70;;;0.70;;
49738;SDS011;53662;50.114;8.626;2022-09-28T15:55:58;2.08;;;0.70;;
49738;SDS011;53662;50.114;8.626;2022-09-28T15:58:24;0.30;;;0.30;;
49738;SDS011;53662;50.114;8.626;2022-09-28T16:01:19;0.50;;;0.50;;
49738;SDS011;53662;50.114;8.626;2022-09-28T16:03:37;1.48;;;0.40;;
49738;SDS011;53662;50.114;8.626;2022-09-28T16:06:04;0.52;;;0.50;;
49738;SDS011;53662;50.114;8.626;2022-09-28T16:08:40;1.60;;;0.70;;
49738;SDS011;53662;50.114;8.626;2022-09-28T16:16:28;1.08;;;0.60;;
49738;SDS011;53662;50.114;8.626;2022-09-28T16:18:55;1.45;;;0.70;;
49738;SDS011;53662;50.114;8.626;2022-09-28T16:24:27;1.83;;;0.65;;
49738;SDS011;53662;50.114;8.626;2022-09-28T16:26:58;3.03;;;0.70;;
49738;SDS011;53662;50.114;8.626;2022-09-28T16:29:28;5.20;;;0.80;;
49738;SDS011;53662;50.114;8.626;2022-09-28T16:31:56;0.98;;;0.55;;
49738;SDS011;53662;50.114;8.626;2022-09-28T16:34:42;1.85;;;0.80;;
49738;SDS011;53662;50.114;8.626;2022-09-28T16:37:21;3.85;;;0.77;;
49738;SDS011;53662;50.114;8.626;2022-09-28T16:39:50;0.88;;;0.88;;
49738;SDS011;53662;50.114;8.626;2022-09-28T16:42:16;0.88;;;0.82;;
49738;SDS011;53662;50.114;8.626;2022-09-28T16:44:42;1.00;;;0.90;;
49738;SDS011;53662;50.114;8.626;2022-09-28T16:47:08;1.40;;;1.10;;
49738;SDS011;53662;50.114;8.626;2022-09-28T16:49:34;3.85;;;1.10;;
49738;SDS011;53662;50.114;8.626;2022-09-28T16:52:07;2.90;;;1.17;;
49738;SDS011;53662;50.114;8.626;2022-09-28T16:54:33;2.45;;;1.17;;
49738;SDS011;53662;50.114;8.626;2022-09-28T16:57:18;5.30;;;1.08;;
49738;SDS011;53662;50.114;8.626;2022-09-28T16:59:44;1.02;;;0.90;;
49738;SDS011;53662;50.114;8.626;2022-09-28T17:04:39;1.50;;;0.90;;
49738;SDS011;53662;50.114;8.626;2022-09-28T17:07:04;2.45;;;0.93;;
49738;SDS011;53662;50.114;8.626;2022-09-28T17:09:30;3.20;;;0.80;;
49738;SDS011;53662;50.114;8.626;2022-09-28T17:11:57;2.33;;;1.20;;
49738;SDS011;53662;50.114;8.626;2022-09-28T17:14:23;7.55;;;1.38;;
49738;SDS011;53662;50.114;8.626;2022-09-28T17:16:49;6.53;;;1.40;;
49738;SDS011;53662;50.114;8.626;2022-09-28T17:19:18;18.70;;;1.25;;
49738;SDS011;53662;50.114;8.626;2022-09-28T17:21:45;7.70;;;1.17;;
49738;SDS011;53662;50.114;8.626;2022-09-28T17:24:11;5.20;;;1.08;;
49738;SDS011;53662;50.114;8.626;2022-09-28T17:26:37;1.40;;;0.85;;
49738;SDS011;53662;50.114;8.626;2022-09-28T17:29:03;5.07;;;1.00;;
49738;SDS011;53662;50.114;8.626;2022-09-28T17:31:32;16.15;;;1.20;;
49738;SDS011;53662;50.114;8.626;2022-09-28T17:33:58;7.50;;;1.10;;
49738;SDS011;53662;50.114;8.626;2022-09-28T17:36:24;4.97;;;1.10;;
49738;SDS011;53662;50.114;8.626;2022-09-28T17:38:50;1.42;;;0.73;;
49738;SDS011;53662;50.114;8.626;2022-09-28T17:41:17;0.98;;;0.85;;
49738;SDS011;53662;50.114;8.626;2022-09-28T17:43:44;2.25;;;0.95;;
49738;SDS011;53662;50.114;8.626;2022-09-28T17:46:16;11.68;;;1.10;;
49738;SDS011;53662;50.114;8.626;2022-09-28T17:48:44;1.90;;;1.30;;
49738;SDS011;53662;50.114;8.626;2022-09-28T17:51:12;4.05;;;0.77;;
49738;SDS011;53662;50.114;8.626;2022-09-28T17:53:38;2.40;;;0.85;;
49738;SDS011;53662;50.114;8.626;2022-09-28T17:56:04;5.65;;;1.30;;
49738;SDS011;53662;50.114;8.626;2022-09-28T17:58:38;11.18;;;1.15;;
49738;SDS011;53662;50.114;8.626;2022-09-28T18:01:04;9.40;;;1.08;;
49738;SDS011;53662;50.114;8.626;2022-09-28T18:03:30;5.07;;;1.30;;
49738;SDS011;53662;50.114;8.626;2022-09-28T18:06:02;2.13;;;1.25;;
49738;SDS011;53662;50.114;8.626;2022-09-28T18:08:29;2.97;;;1.13;;
49738;SDS011;53662;50.114;8.626;2022-09-28T18:10:55;2.95;;;1.25;;
49738;SDS011;53662;50.114;8.626;2022-09-28T18:13:21;2.75;;;1.40;;
49738;SDS011;53662;50.114;8.626;2022-09-28T18:15:51;2.78;;;1.48;;
49738;SDS011;53662;50.114;8.626;2022-09-28T18:18:17;8.15;;;1.35;;
49738;SDS011;53662;50.114;8.626;2022-09-28T18:20:43;5.43;;;1.60;;
49738;SDS011;53662;50.114;8.626;2022-09-28T18:23:09;14.00;;;1.65;;
49738;SDS011;53662;50.114;8.626;2022-09-28T18:25:42;2.90;;;1.60;;
49738;SDS011;53662;50.114;8.626;2022-09-28T18:28:08;3.85;;;1.40;;
49738;SDS011;53662;50.114;8.626;2022-09-28T18:30:36;12.43;;;2.03;;
49738;SDS011;53662;50.114;8.626;2022-09-28T18:33:03;3.45;;;1.55;;
49738;SDS011;53662;50.114;8.626;2022-09-28T18:35:29;7.30;;;1.85;;
49738;SDS011;53662;50.114;8.626;2022-09-28T18:37:55;6.25;;;1.92;;
49738;SDS011;53662;50.114;8.626;2022-09-28T18:40:21;2.47;;;2.25;;
49738;SDS011;53662;50.114;8.626;2022-09-28T18:42:48;9.10;;;2.40;;
49738;SDS011;53662;50.114;8.626;2022-09-28T18:45:14;5.95;;;2.20;;